Terminal Aerodrome Forecast
Issued by NWS Northern Indiana

Home | Current Version | Previous Version | Text Only | Print | Product List | Glossary Off
Versions: 1 2 3 4 5 6 7 8 9 10 11 12 13 14 15 16

000
FTUS43 KIWX 031100 AAA
TAFFWA
TAF AMD
KFWA 031121Z 0311/0406 12007KT P6SM -FZRASN OVC060
      TEMPO 0311/0313 5SM -FZRASNPL OVC040
     FM031300 13012KT 5SM -FZRAPL OVC040
     FM031500 17015KT 2SM -FZRA BR OVC012 WS020/20035KT
     FM031900 21016G23KT 1SM -RA BR OVC012 WS020/23050KT
     FM040300 27013G18KT P6SM -SN OVC012=

USA.gov is the U.S. government's official web portal to all federal, state and local government web resources and services.